Time;durP1;ratioP1;P1;durP2;ratioP2;P2;SDS_P1;SDS_P2;PMS_P1;PMS_P2;Temp;Humidity;BMP_temperature;BMP_pressure;BME280_temperature;BME280_humidity;BME280_pressure;Samples;Min_cycle;Max_cycle;Signal;HPM_P1;HPM_P2
2021/11/09 08:08:09;;;;;;;15.90;11.13;;;;;;;6.59;72.49;97305.59;782275;24;21615;-86
2021/11/09 08:10:36;;;;;;;18.55;9.82;;;;;;;6.45;72.39;97285.00;4842351;29;20050;-88
2021/11/09 08:13:02;;;;;;;16.27;10.48;;;;;;;6.50;72.66;97281.84;4832276;29;20029;-89
2021/11/09 08:15:27;;;;;;;17.30;10.82;;;;;;;6.65;72.55;97309.38;4845956;29;20403;-88
2021/11/09 08:17:53;;;;;;;17.08;11.77;;;;;;;6.45;71.92;97271.50;4860685;29;20059;-88
2021/11/09 08:20:18;;;;;;;19.95;12.57;;;;;;;6.76;72.72;97309.97;4837406;29;20053;-88
2021/11/09 08:22:44;;;;;;;21.80;13.23;;;;;;;6.77;72.35;97306.13;4828997;29;20064;-88
2021/11/09 08:25:09;;;;;;;20.27;13.15;;;;;;;6.89;72.22;97315.59;4831399;29;20043;-88
2021/11/09 08:27:35;;;;;;;17.73;12.43;;;;;;;6.86;73.10;97306.34;4841698;29;20509;-88
2021/11/09 08:30:00;;;;;;;15.70;10.48;;;;;;;7.01;71.72;97323.09;4842877;29;20041;-88
2021/11/09 08:32:26;;;;;;;13.23;9.35;;;;;;;6.94;71.20;97315.88;4845382;29;20045;-89
2021/11/09 08:34:53;;;;;;;17.52;10.73;;;;;;;6.94;71.07;97320.53;4843517;29;20030;-87
2021/11/09 08:37:20;;;;;;;14.93;10.00;;;;;;;6.96;72.23;97313.53;4846593;29;20052;-88
2021/11/09 08:39:46;;;;;;;20.10;10.52;;;;;;;7.10;71.10;97336.84;4846191;29;20034;-88
2021/11/09 08:47:29;;;;;;;21.33;11.85;;;;;;;7.21;71.62;97339.38;4838627;29;20045;-86
2021/11/09 08:49:54;;;;;;;24.20;14.05;;;;;;;7.24;70.80;97330.44;4858957;29;20033;-88
2021/11/09 08:52:22;;;;;;;20.25;12.27;;;;;;;7.37;71.31;97353.00;4837366;29;20037;-88
2021/11/09 08:54:54;;;;;;;23.60;13.10;;;;;;;7.30;71.66;97343.09;4835850;29;20109;-88
2021/11/09 09:05:12;;;;;;;16.10;10.73;;;;;;;7.47;70.88;97359.41;4861328;29;20079;-88
2021/11/09 09:07:39;;;;;;;18.95;11.23;;;;;;;7.62;71.00;97371.50;4846702;29;20029;-88
2021/11/09 09:10:07;;;;;;;16.05;11.30;;;;;;;7.69;71.21;97384.88;4844533;29;20045;-87
2021/11/09 09:12:35;;;;;;;25.73;12.50;;;;;;;7.73;70.88;97382.91;4862124;29;20140;-87
2021/11/09 09:15:03;;;;;;;18.38;11.02;;;;;;;7.52;71.74;97348.88;4857746;29;20039;-87
2021/11/09 09:17:30;;;;;;;16.20;10.98;;;;;;;7.60;71.56;97350.28;4834174;29;20030;-86
2021/11/09 09:20:01;;;;;;;17.75;11.05;;;;;;;7.83;71.27;97375.78;4843096;29;20101;-87
2021/11/09 09:22:35;;;;;;;21.27;10.63;;;;;;;7.82;70.91;97376.91;4840923;29;20034;-87
2021/11/09 09:28:01;;;;;;;17.17;11.07;;;;;;;7.80;71.31;97365.75;4843492;29;20038;-87
2021/11/09 09:57:21;;;;;;;14.55;10.60;;;;;;;8.48;68.95;97424.03;4845300;29;20859;-87
2021/11/09 09:59:47;;;;;;;12.02;8.13;;;;;;;8.39;67.76;97408.34;4858585;29;20114;-86
2021/11/09 10:02:24;;;;;;;10.18;6.35;;;;;;;8.42;64.72;97434.59;4847314;29;20037;-87
2021/11/09 10:04:57;;;;;;;10.57;7.00;;;;;;;8.36;66.10;97411.88;4844094;29;20037;-87
2021/11/09 10:07:38;;;;;;;11.63;7.57;;;;;;;8.63;66.41;97450.41;4836700;29;20030;-87
2021/11/09 10:10:33;;;;;;;6.72;5.28;;;;;;;8.32;65.91;97386.81;4823054;29;20046;-87
2021/11/09 10:12:58;;;;;;;8.27;5.40;;;;;;;8.77;65.38;97443.16;4805501;29;20050;-86
2021/11/09 10:15:29;;;;;;;5.35;4.40;;;;;;;8.75;64.43;97450.94;4805451;29;20081;-87
2021/11/09 10:18:00;;;;;;;6.40;4.40;;;;;;;8.81;65.21;97447.31;4825672;29;20034;-86
2021/11/09 10:20:33;;;;;;;7.00;4.30;;;;;;;8.72;64.58;97438.22;4826056;29;20050;-87
2021/11/09 10:23:09;;;;;;;5.38;4.22;;;;;;;8.72;65.38;97438.22;4832048;29;20053;-87
2021/11/09 10:25:36;;;;;;;4.75;3.08;;;;;;;8.95;64.60;97457.09;4819694;29;20052;-87
2021/11/09 10:28:14;;;;;;;3.67;2.20;;;;;;;9.01;63.71;97460.06;4825203;29;20075;-87
2021/11/09 10:30:52;;;;;;;4.00;2.00;;;;;;;8.93;62.06;97445.91;4823628;29;20038;-87
2021/11/09 10:33:20;;;;;;;2.53;1.90;;;;;;;8.91;61.52;97440.16;4819724;29;20026;-88
2021/11/09 10:35:47;;;;;;;2.55;1.98;;;;;;;8.94;60.78;97439.28;4810321;29;20062;-87
2021/11/09 10:38:13;;;;;;;3.58;2.20;;;;;;;8.98;62.13;97442.69;4818432;29;20042;-86
2021/11/09 10:40:50;;;;;;;2.58;2.03;;;;;;;9.16;60.51;97445.78;4805427;29;20035;-86
2021/11/09 10:43:21;;;;;;;3.45;2.47;;;;;;;9.24;61.66;97457.22;4828693;29;20035;-86
2021/11/09 10:45:47;;;;;;;2.72;2.20;;;;;;;9.23;60.33;97434.00;4817328;29;20472;-86
2021/11/09 10:48:15;;;;;;;2.05;1.80;;;;;;;9.44;59.35;97457.16;4836202;29;20487;-86
2021/11/09 10:50:45;;;;;;;5.20;2.22;;;;;;;9.52;59.24;97441.47;4814921;29;20041;-87
2021/11/09 10:53:29;;;;;;;2.78;1.70;;;;;;;9.60;57.91;97453.69;4820362;29;20041;-86
2021/11/09 10:56:07;;;;;;;3.88;1.80;;;;;;;9.66;58.08;97439.19;4821160;29;20058;-86
2021/11/09 11:03:53;;;;;;;2.22;1.88;;;;;;;9.96;58.21;97442.72;4813127;29;20050;-86
2021/11/09 11:06:41;;;;;;;3.42;1.90;;;;;;;9.98;58.55;97446.50;4821459;29;20030;-86
2021/11/09 11:09:09;;;;;;;2.17;1.70;;;;;;;10.12;56.70;97453.53;4823007;29;20198;-86
2021/11/09 11:11:44;;;;;;;2.55;1.88;;;;;;;10.13;57.89;97452.34;4819406;29;20404;-86
2021/11/09 11:14:18;;;;;;;2.83;2.15;;;;;;;10.03;57.17;97434.38;4848195;29;20041;-85
2021/11/09 11:17:04;;;;;;;2.95;2.20;;;;;;;10.21;57.28;97447.47;4833179;29;20063;-85
2021/11/09 11:19:34;;;;;;;3.42;2.60;;;;;;;10.25;57.54;97445.44;4821917;29;20141;-85
2021/11/09 11:22:11;;;;;;;3.47;2.47;;;;;;;10.31;57.95;97442.97;4825848;29;20125;-86
2021/11/09 11:27:13;;;;;;;5.20;3.20;;;;;;;10.44;57.40;97454.66;5012466;24;20109;-86
2021/11/09 11:29:40;;;;;;;6.35;3.88;;;;;;;10.27;57.51;97432.19;4840989;29;20029;-85
2021/11/09 11:32:11;;;;;;;5.70;3.33;;;;;;;10.37;57.56;97446.69;4831623;29;20069;-86
2021/11/09 11:34:38;;;;;;;3.85;3.35;;;;;;;10.22;58.12;97444.31;4830350;29;20458;-86
2021/11/09 11:37:04;;;;;;;4.30;2.92;;;;;;;10.25;58.27;97450.88;4826494;29;20029;-86
2021/11/09 11:39:31;;;;;;;3.85;3.35;;;;;;;10.11;58.54;97435.69;4825432;29;20041;-86
2021/11/09 11:41:59;;;;;;;4.85;3.78;;;;;;;10.12;58.62;97448.09;4830282;29;20383;-86
2021/11/09 11:44:27;;;;;;;5.07;3.78;;;;;;;10.29;59.73;97472.53;4824655;29;20022;-85
2021/11/09 11:46:58;;;;;;;6.78;3.83;;;;;;;10.08;59.19;97439.28;4825062;29;20386;-85
2021/11/09 11:49:26;;;;;;;7.07;3.75;;;;;;;10.20;59.30;97451.38;4840110;29;20033;-85
2021/11/09 11:51:52;;;;;;;5.47;3.10;;;;;;;10.27;59.14;97464.03;4826055;29;20103;-85
2021/11/09 11:54:19;;;;;;;11.88;5.60;;;;;;;10.23;57.64;97462.19;4829943;29;20029;-85
2021/11/09 11:56:51;;;;;;;8.23;5.00;;;;;;;10.10;58.64;97439.59;4819337;29;20095;-85
2021/11/09 11:59:23;;;;;;;8.35;4.70;;;;;;;10.31;58.14;97467.41;4823280;29;20390;-86
2021/11/09 12:01:52;;;;;;;5.43;3.25;;;;;;;10.14;58.51;97451.13;4835158;29;20030;-85
2021/11/09 12:04:36;;;;;;;4.90;3.00;;;;;;;10.28;57.34;97470.97;4837913;29;20026;-84
2021/11/09 12:07:03;;;;;;;3.33;2.38;;;;;;;10.22;57.93;97466.03;4837767;29;20033;-85
2021/11/09 12:09:35;;;;;;;2.70;1.98;;;;;;;10.07;56.87;97450.56;4850957;29;20079;-84
2021/11/09 12:12:18;;;;;;;2.55;1.70;;;;;;;10.11;53.46;97465.56;4815765;29;20094;-85
2021/11/09 12:14:54;;;;;;;2.72;1.73;;;;;;;10.14;56.06;97458.53;4844690;29;20725;-85
2021/11/09 12:17:44;;;;;;;2.35;1.73;;;;;;;10.21;54.92;97466.47;4824812;29;20066;-86
2021/11/09 12:20:41;;;;;;;1.67;1.42;;;;;;;10.21;53.49;97477.34;4832947;29;20034;-85
2021/11/09 12:23:20;;;;;;;1.60;1.23;;;;;;;10.23;55.73;97472.25;4814242;29;20038;-85
2021/11/09 12:25:48;;;;;;;1.33;1.23;;;;;;;10.31;55.30;97470.88;4821066;29;20069;-86
2021/11/09 12:28:16;;;;;;;2.05;1.65;;;;;;;10.33;55.98;97476.63;4817724;29;20026;-85
2021/11/09 12:30:50;;;;;;;2.10;1.63;;;;;;;10.34;56.44;97472.00;4827407;29;20038;-85
2021/11/09 12:33:37;;;;;;;3.22;2.17;;;;;;;10.30;54.69;97474.03;4821143;29;20022;-85
2021/11/09 12:36:03;;;;;;;2.50;2.10;;;;;;;10.42;56.00;97482.22;4824725;29;20076;-85
2021/11/09 12:38:35;;;;;;;3.30;2.30;;;;;;;10.33;57.01;97452.19;4839658;29;20037;-86
2021/11/09 12:41:09;;;;;;;2.80;2.30;;;;;;;10.46;54.52;97461.16;4840244;29;20686;-85
2021/11/09 12:44:03;;;;;;;2.83;2.22;;;;;;;10.43;54.46;97459.28;4826786;29;20037;-86
2021/11/09 12:46:41;;;;;;;5.78;2.28;;;;;;;10.45;54.50;97462.38;4819843;29;20030;-86
2021/11/09 12:49:13;;;;;;;3.03;2.47;;;;;;;10.32;52.89;97456.13;4824875;29;20026;-86
2021/11/09 12:51:54;;;;;;;2.95;2.25;;;;;;;10.36;54.33;97475.78;4838968;29;20148;-85
2021/11/09 12:54:27;;;;;;;3.15;2.30;;;;;;;10.31;55.72;97451.88;4850097;29;20030;-85
2021/11/09 12:56:59;;;;;;;5.10;1.98;;;;;;;10.41;55.37;97450.06;4822174;29;20038;-86
2021/11/09 13:04:47;;;;;;;3.67;2.15;;;;;;;10.41;54.73;97464.41;4840839;29;20386;-85
2021/11/09 13:09:53;;;;;;;3.17;2.37;;;;;;;10.35;54.71;97449.84;4837034;29;20026;-86
2021/11/09 13:12:20;;;;;;;6.32;2.20;;;;;;;10.47;55.16;97470.84;4827575;29;20339;-85
2021/11/09 13:14:50;;;;;;;2.70;1.70;;;;;;;10.39;55.45;97463.31;4824634;29;20335;-85
2021/11/09 13:17:19;;;;;;;3.30;2.20;;;;;;;10.23;54.57;97440.47;4825898;29;20072;-85
2021/11/09 13:19:47;;;;;;;4.15;1.92;;;;;;;10.26;54.76;97448.94;4831720;29;20136;-84
2021/11/09 13:22:28;;;;;;;11.40;2.30;;;;;;;10.35;56.09;97457.97;4815677;29;20107;-85
2021/11/09 13:25:06;;;;;;;8.90;2.35;;;;;;;10.27;55.80;97434.16;4853349;29;20034;-85
2021/11/09 13:27:42;;;;;;;9.90;2.10;;;;;;;10.41;55.90;97463.66;4836256;29;20054;-84
2021/11/09 13:30:21;;;;;;;5.70;2.38;;;;;;;10.34;55.28;97459.19;4826586;29;20034;-85
2021/11/09 13:32:50;;;;;;;3.50;2.42;;;;;;;10.18;56.79;97448.34;4818764;29;20022;-86
2021/11/09 13:35:29;;;;;;;6.18;4.05;;;;;;;10.30;56.86;97469.38;4830670;29;20038;-85
2021/11/09 13:38:12;;;;;;;9.07;6.78;;;;;;;10.32;56.10;97472.41;4807435;29;20030;-85
2021/11/09 13:40:44;;;;;;;7.57;4.13;;;;;;;10.16;56.21;97456.88;4817337;29;20041;-85
2021/11/09 13:43:12;;;;;;;5.20;4.63;;;;;;;10.17;55.79;97477.44;4833768;29;20026;-85
2021/11/09 13:45:39;;;;;;;3.03;2.35;;;;;;;10.06;55.64;97473.47;4822690;29;20103;-85
2021/11/09 13:48:18;;;;;;;4.68;3.25;;;;;;;10.10;56.94;97480.31;4820969;29;20030;-85
2021/11/09 13:50:47;;;;;;;6.13;2.95;;;;;;;9.90;56.67;97458.72;4811923;29;20130;-86
2021/11/09 13:53:22;;;;;;;6.38;3.00;;;;;;;9.97;57.31;97480.28;4842915;29;20099;-85
2021/11/09 13:55:48;;;;;;;5.13;2.67;;;;;;;9.81;56.89;97464.00;4835040;29;20399;-85
2021/11/09 13:58:13;;;;;;;4.40;2.55;;;;;;;9.79;56.26;97477.22;4813925;29;20083;-85
2021/11/09 14:00:46;;;;;;;3.72;2.40;;;;;;;9.68;56.47;97479.44;4838622;29;20079;-85
2021/11/09 14:03:26;;;;;;;4.18;2.70;;;;;;;9.80;58.11;97489.63;4824077;29;20049;-85
2021/11/09 14:16:40;;;;;;;3.88;2.15;;;;;;;9.43;58.69;97488.19;4825436;29;20038;-87
2021/11/09 14:19:12;;;;;;;3.50;2.30;;;;;;;9.36;59.63;97478.22;4845706;29;20027;-87
2021/11/09 14:21:41;;;;;;;4.30;2.50;;;;;;;9.21;59.14;97497.94;4823880;29;20074;-87
2021/11/09 14:24:12;;;;;;;5.32;2.60;;;;;;;9.15;59.31;97501.16;4823972;29;20054;-86
2021/11/09 14:26:39;;;;;;;5.15;2.55;;;;;;;8.85;59.51;97487.88;4824115;29;20058;-86
2021/11/09 14:29:36;;;;;;;3.17;2.60;;;;;;;8.89;59.83;97492.06;4823017;29;20030;-87
2021/11/09 14:32:16;;;;;;;7.75;4.40;;;;;;;8.93;59.54;97506.28;4818461;29;20109;-86
2021/11/09 14:35:02;;;;;;;16.17;9.77;;;;;;;8.94;60.62;97507.03;4820422;29;20290;-86
2021/11/09 14:37:35;;;;;;;6.00;4.05;;;;;;;8.81;60.33;97498.03;4837272;29;20677;-86
2021/11/09 14:40:11;;;;;;;5.55;3.40;;;;;;;8.79;60.95;97501.16;4822797;29;20037;-86
2021/11/09 14:45:31;;;;;;;22.45;4.72;;;;;;;8.72;60.58;97495.88;4831528;29;20063;-87
2021/11/09 14:48:05;;;;;;;7.95;3.60;;;;;;;8.76;61.23;97509.34;4831369;29;20038;-88
2021/11/09 14:50:59;;;;;;;8.02;3.58;;;;;;;8.52;61.38;97468.81;4822612;29;20050;-86
2021/11/09 14:53:25;;;;;;;4.47;3.42;;;;;;;8.58;61.66;97477.22;4812816;29;20164;-87
2021/11/09 14:56:00;;;;;;;6.22;4.30;;;;;;;8.58;61.07;97496.94;4813478;29;20030;-87
2021/11/09 14:58:38;;;;;;;6.22;4.13;;;;;;;8.47;61.55;97493.66;4810709;29;20031;-87
2021/11/09 15:01:36;;;;;;;8.18;4.15;;;;;;;8.51;61.95;97521.41;4815112;29;20035;-87
2021/11/09 15:04:27;;;;;;;6.22;3.60;;;;;;;8.32;61.52;97528.31;4822592;29;20026;-87
2021/11/09 15:12:20;;;;;;;8.68;4.63;;;;;;;7.94;63.68;97517.00;4823510;29;20077;-87
2021/11/09 15:25:47;;;;;;;6.28;4.50;;;;;;;7.28;64.08;97520.31;4844241;29;20064;-88
2021/11/09 15:28:19;;;;;;;5.82;4.20;;;;;;;7.04;64.94;97541.09;4851517;29;20033;-87
2021/11/09 15:33:35;;;;;;;9.30;5.97;;;;;;;6.89;65.55;97537.81;4843566;29;20029;-87
2021/11/09 15:38:50;;;;;;;11.15;6.60;;;;;;;6.77;65.61;97563.41;4838497;29;20030;-88
2021/11/09 15:41:17;;;;;;;10.00;6.43;;;;;;;6.55;65.80;97545.91;4837664;29;20034;-88
2021/11/09 15:43:43;;;;;;;13.00;6.95;;;;;;;6.56;66.34;97555.53;4829088;29;20729;-87
2021/11/09 15:46:10;;;;;;;17.88;7.70;;;;;;;6.47;66.86;97542.50;4850089;29;20026;-89
2021/11/09 15:48:45;;;;;;;12.43;7.55;;;;;;;6.39;66.52;97546.47;4845286;29;20038;-89
2021/11/09 15:51:11;;;;;;;12.98;8.57;;;;;;;6.41;66.51;97564.94;4844379;29;20120;-85
2021/11/09 15:53:36;;;;;;;15.25;8.75;;;;;;;6.30;66.71;97567.75;4838193;29;20117;-87
2021/11/09 15:56:03;;;;;;;15.38;9.25;;;;;;;6.19;67.04;97554.38;4860188;29;20086;-86
2021/11/09 15:58:29;;;;;;;15.63;9.82;;;;;;;6.28;67.15;97588.94;4860302;29;20030;-87
2021/11/09 16:00:54;;;;;;;16.40;11.07;;;;;;;6.08;67.62;97567.19;4845569;29;20052;-88
2021/11/09 16:03:20;;;;;;;24.73;15.07;;;;;;;5.99;67.47;97561.47;4820385;29;20034;-87
2021/11/09 16:05:51;;;;;;;35.03;20.05;;;;;;;5.85;67.88;97545.38;4832293;29;20033;-87
2021/11/09 16:08:17;;;;;;;47.70;27.35;;;;;;;5.82;68.04;97551.56;4829387;29;20051;-86
2021/11/09 16:10:43;;;;;;;53.47;32.63;;;;;;;5.72;67.72;97556.63;4847706;29;20034;-88
2021/11/09 16:13:09;;;;;;;61.15;34.40;;;;;;;5.76;68.11;97570.88;4826792;29;20067;-87
2021/11/09 16:15:35;;;;;;;46.72;28.85;;;;;;;5.70;67.71;97574.34;4824100;29;20037;-87
2021/11/09 16:18:00;;;;;;;64.78;33.97;;;;;;;5.63;68.83;97588.66;4826844;29;20041;-87
2021/11/09 16:20:28;;;;;;;45.90;28.48;;;;;;;5.65;69.04;97593.66;4825532;29;20182;-88
2021/11/09 16:22:54;;;;;;;52.13;29.50;;;;;;;5.57;69.18;97608.34;4827577;29;20029;-87
2021/11/09 16:25:20;;;;;;;44.53;25.73;;;;;;;5.41;68.82;97581.88;4827482;29;20041;-87
2021/11/09 16:27:45;;;;;;;38.25;23.63;;;;;;;5.50;68.79;97598.38;4828803;29;20502;-87
2021/11/09 16:30:11;;;;;;;35.13;21.52;;;;;;;5.58;68.43;97624.09;4818331;29;20022;-87
2021/11/09 16:32:41;;;;;;;32.25;19.90;;;;;;;5.53;68.99;97625.28;4842853;29;20026;-87
2021/11/09 16:35:18;;;;;;;28.93;19.30;;;;;;;5.52;68.58;97629.16;4837187;29;20423;-86
2021/11/09 16:37:44;;;;;;;32.70;17.20;;;;;;;5.33;69.08;97620.78;4841778;29;20512;-86
2021/11/09 16:40:16;;;;;;;29.42;16.85;;;;;;;5.25;70.04;97615.41;4843076;29;20045;-86
2021/11/09 16:42:47;;;;;;;25.48;16.42;;;;;;;5.33;69.08;97648.50;4809883;29;20034;-87
2021/11/09 16:45:19;;;;;;;;;;;;;;;5.36;69.62;97653.09;4826173;29;20120;-87
2021/11/09 16:47:45;;;;;;;27.92;16.17;;;;;;;5.09;68.94;97615.09;4826627;29;19963;-87
2021/11/09 16:52:37;;;;;;;30.70;20.38;;;;;;;4.95;69.34;97626.72;4846841;29;20104;-86
2021/11/09 17:00:29;;;;;;;34.30;23.40;;;;;;;4.68;70.47;97641.75;4844540;29;20034;-86
2021/11/09 17:06:33;;;;;;;33.95;24.08;;;;;;;4.39;70.91;97614.91;4839141;29;20109;-86
2021/11/09 17:19:06;;;;;;;34.22;22.83;;;;;;;4.49;70.82;97666.41;4853977;29;20039;-87
